createdAt,value
2022-12-08T00:02:10.767Z,-0.86
2022-12-08T00:05:33.522Z,-0.90
2022-12-08T00:08:54.812Z,-0.90
2022-12-08T00:12:04.009Z,-0.90
2022-12-08T00:15:07.552Z,-0.90
2022-12-08T00:18:10.893Z,-0.99
2022-12-08T00:21:13.441Z,-1.04
2022-12-08T00:24:22.682Z,-0.99
2022-12-08T00:27:25.145Z,-1.06
2022-12-08T00:30:29.566Z,-0.99
2022-12-08T00:33:32.387Z,-0.97
2022-12-08T00:36:35.396Z,-0.93
2022-12-08T00:39:37.967Z,-0.96
2022-12-08T00:42:40.771Z,-1.00
2022-12-08T00:45:43.515Z,-0.98
2022-12-08T00:48:46.222Z,-1.00
2022-12-08T00:51:49.019Z,-1.00
2022-12-08T00:54:51.858Z,-1.02
2022-12-08T00:57:54.877Z,-1.12
2022-12-08T01:00:58.057Z,-1.18
2022-12-08T01:04:13.614Z,-1.25
2022-12-08T01:07:17.273Z,-1.31
2022-12-08T01:10:20.149Z,-1.35
2022-12-08T01:13:23.031Z,-1.43
2022-12-08T01:16:28.839Z,-1.49
2022-12-08T01:19:32.239Z,-1.50
2022-12-08T01:22:36.077Z,-1.57
2022-12-08T01:25:38.988Z,-1.55
2022-12-08T01:28:42.547Z,-1.60
2022-12-08T01:31:45.511Z,-1.61
2022-12-08T01:34:48.244Z,-1.63
2022-12-08T01:37:51.639Z,-1.60
2022-12-08T01:40:55.886Z,-1.64
2022-12-08T01:44:24.704Z,-1.67
2022-12-08T01:47:36.221Z,-1.63
2022-12-08T01:50:40.741Z,-1.64
2022-12-08T01:53:43.828Z,-1.71
2022-12-08T01:56:56.498Z,-1.69
2022-12-08T02:00:10.009Z,-1.72
2022-12-08T02:03:25.464Z,-1.69
2022-12-08T02:06:32.681Z,-1.71
2022-12-08T02:09:37.868Z,-1.71
2022-12-08T02:12:40.470Z,-1.72
2022-12-08T02:15:55.713Z,-1.76
2022-12-08T02:19:30.731Z,-1.76
2022-12-08T02:22:47.598Z,-1.70
2022-12-08T02:26:16.795Z,-1.70
2022-12-08T02:29:58.140Z,-1.70
2022-12-08T02:33:43.171Z,-1.71
2022-12-08T02:36:48.839Z,-1.65
2022-12-08T02:40:06.904Z,-1.63
2022-12-08T02:43:17.000Z,-1.56
2022-12-08T02:46:29.465Z,-1.48
2022-12-08T02:49:33.503Z,-1.54
2022-12-08T02:52:47.676Z,-1.53
2022-12-08T02:56:05.999Z,-1.51
2022-12-08T02:59:37.218Z,-1.44
2022-12-08T03:02:59.314Z,-1.39
2022-12-08T03:06:23.368Z,-1.30
2022-12-08T03:09:46.156Z,-1.25
2022-12-08T03:12:53.747Z,-1.17
2022-12-08T03:15:56.727Z,-1.17
2022-12-08T03:19:08.717Z,-1.11
2022-12-08T03:22:14.773Z,-1.07
2022-12-08T03:25:22.803Z,-1.01
2022-12-08T03:28:26.029Z,-0.94
2022-12-08T03:31:33.241Z,-0.87
2022-12-08T03:34:39.001Z,-0.86
2022-12-08T03:37:42.619Z,-0.82
2022-12-08T03:41:09.776Z,-0.84
2022-12-08T03:44:12.318Z,-0.81
2022-12-08T03:47:15.006Z,-0.76
2022-12-08T03:50:18.572Z,-0.70
2022-12-08T03:53:21.455Z,-0.73
2022-12-08T03:56:31.430Z,-0.68
2022-12-08T03:59:34.714Z,-0.61
2022-12-08T04:02:37.549Z,-0.57
2022-12-08T04:05:47.422Z,-0.56
2022-12-08T04:08:50.893Z,-0.59
2022-12-08T04:11:54.088Z,-0.59
2022-12-08T04:14:56.780Z,-0.59
2022-12-08T04:18:00.224Z,-0.60
2022-12-08T04:21:04.392Z,-0.57
2022-12-08T04:24:08.212Z,-0.50
2022-12-08T04:27:11.460Z,-0.50
2022-12-08T04:30:14.565Z,-0.52
2022-12-08T04:33:17.716Z,-0.52
2022-12-08T04:36:20.735Z,-0.49
2022-12-08T04:39:24.364Z,-0.48
2022-12-08T04:42:27.170Z,-0.54
2022-12-08T04:45:30.096Z,-0.50
2022-12-08T04:48:34.346Z,-0.48
2022-12-08T04:51:36.819Z,-0.41
2022-12-08T04:54:40.788Z,-0.54
2022-12-08T04:57:44.915Z,-0.54
2022-12-08T05:00:48.023Z,-0.55
2022-12-08T05:03:52.846Z,-0.59
2022-12-08T05:06:56.954Z,-0.51
2022-12-08T05:10:00.500Z,-0.40
2022-12-08T05:13:04.814Z,-0.37
2022-12-08T05:16:13.131Z,-0.33
2022-12-08T05:19:17.137Z,-0.27
2022-12-08T05:22:19.801Z,-0.23
2022-12-08T05:25:27.342Z,-0.33
2022-12-08T05:28:41.337Z,-0.38
2022-12-08T05:31:48.611Z,-0.36
2022-12-08T05:34:52.351Z,-0.35
2022-12-08T05:37:55.701Z,-0.44
2022-12-08T05:40:59.427Z,-0.49
2022-12-08T05:44:04.666Z,-0.50
2022-12-08T05:47:07.464Z,-0.45
2022-12-08T05:50:17.361Z,-0.49
2022-12-08T05:53:21.821Z,-0.45
2022-12-08T05:56:25.413Z,-0.46
2022-12-08T05:59:28.106Z,-0.44
2022-12-08T06:02:32.120Z,-0.39
2022-12-08T06:05:51.458Z,-0.33
2022-12-08T06:08:55.964Z,-0.34
2022-12-08T06:11:59.297Z,-0.27
2022-12-08T06:15:01.952Z,-0.38
2022-12-08T06:18:06.300Z,-0.36
2022-12-08T06:21:11.509Z,-0.28
2022-12-08T06:24:15.624Z,-0.33
2022-12-08T06:27:19.258Z,-0.41
2022-12-08T06:30:22.771Z,-0.43
2022-12-08T06:33:26.565Z,-0.46
2022-12-08T06:36:30.564Z,-0.46
2022-12-08T06:39:33.388Z,-0.38
2022-12-08T06:42:47.198Z,-0.36
2022-12-08T06:45:52.793Z,-0.35
2022-12-08T06:48:56.027Z,-0.39
2022-12-08T06:52:01.647Z,-0.38
2022-12-08T06:55:08.673Z,-0.37
2022-12-08T06:58:13.903Z,-0.27
2022-12-08T07:01:17.490Z,-0.29
2022-12-08T07:04:20.208Z,-0.24
2022-12-08T07:07:23.193Z,-0.22
2022-12-08T07:10:27.055Z,-0.17
2022-12-08T07:13:30.249Z,-0.12
2022-12-08T07:16:34.557Z,-0.06
2022-12-08T07:19:37.667Z,0.02
2022-12-08T07:22:42.598Z,0.07
2022-12-08T07:25:46.282Z,0.10
2022-12-08T07:28:51.461Z,0.15
2022-12-08T07:31:54.936Z,0.32
2022-12-08T07:34:57.818Z,0.37
2022-12-08T07:38:01.245Z,0.38
2022-12-08T07:41:12.889Z,0.55
2022-12-08T07:44:16.184Z,0.58
2022-12-08T07:47:19.332Z,0.65
2022-12-08T07:50:22.784Z,0.71
2022-12-08T07:53:25.515Z,0.86
2022-12-08T07:56:29.227Z,0.94
2022-12-08T07:59:34.316Z,0.99
2022-12-08T08:02:37.938Z,1.08
2022-12-08T08:05:48.394Z,1.32
2022-12-08T08:08:51.804Z,1.47
2022-12-08T08:12:22.156Z,1.61
2022-12-08T08:15:22.299Z,1.59
2022-12-08T08:18:26.432Z,1.53
2022-12-08T08:21:44.917Z,1.47
2022-12-08T08:24:54.032Z,1.48
2022-12-08T08:27:56.704Z,1.47
2022-12-08T08:31:00.375Z,1.54
2022-12-08T08:34:07.327Z,1.59
2022-12-08T08:37:11.677Z,1.66
2022-12-08T08:40:15.264Z,1.67
2022-12-08T08:43:37.789Z,1.76
2022-12-08T08:46:42.685Z,1.78
2022-12-08T08:49:46.256Z,1.91
2022-12-08T08:52:50.366Z,1.90
2022-12-08T08:55:53.305Z,1.91
2022-12-08T08:58:58.566Z,2.05
2022-12-08T09:02:04.410Z,2.10
2022-12-08T09:05:07.888Z,2.03
2022-12-08T09:08:11.567Z,2.02
2022-12-08T09:11:15.575Z,2.08
2022-12-08T09:14:19.630Z,2.16
2022-12-08T09:17:23.921Z,2.24
2022-12-08T09:20:32.434Z,2.18
2022-12-08T09:23:40.051Z,2.13
2022-12-08T09:26:45.587Z,2.28
2022-12-08T09:29:52.492Z,2.64
2022-12-08T09:32:56.546Z,2.91
2022-12-08T09:36:04.425Z,2.96
2022-12-08T09:39:16.299Z,2.99
2022-12-08T09:42:35.526Z,2.97
2022-12-08T09:45:40.438Z,2.83
2022-12-08T09:48:56.103Z,2.79
2022-12-08T09:52:03.692Z,2.77
2022-12-08T09:55:17.686Z,2.71
2022-12-08T09:58:42.445Z,2.70
2022-12-08T10:01:46.511Z,2.68
2022-12-08T10:04:50.504Z,2.70
2022-12-08T10:08:42.527Z,2.76
2022-12-08T10:11:58.706Z,2.87
2022-12-08T10:15:28.482Z,2.87
2022-12-08T10:18:33.608Z,2.89
2022-12-08T10:21:36.087Z,2.91
2022-12-08T10:24:50.932Z,3.00
2022-12-08T10:27:54.946Z,3.06
2022-12-08T10:30:58.793Z,3.12
2022-12-08T10:34:24.391Z,3.06
2022-12-08T10:37:29.725Z,3.02
2022-12-08T10:40:40.700Z,3.02
2022-12-08T10:43:50.866Z,2.99
2022-12-08T10:46:55.577Z,2.99
2022-12-08T10:50:23.306Z,2.96
2022-12-08T10:53:33.221Z,2.99
2022-12-08T10:56:39.505Z,3.01
2022-12-08T10:59:45.591Z,3.06
2022-12-08T11:03:04.744Z,3.06
2022-12-08T11:06:20.733Z,3.06
2022-12-08T11:09:37.343Z,3.03
2022-12-08T11:12:44.368Z,3.14
2022-12-08T11:15:51.503Z,3.16
2022-12-08T11:18:58.804Z,3.18
2022-12-08T11:22:02.485Z,3.19
2022-12-08T11:25:13.387Z,3.10
2022-12-08T11:28:22.452Z,3.15
2022-12-08T11:31:35.740Z,3.15
2022-12-08T11:35:02.677Z,3.22
2022-12-08T11:38:27.258Z,3.25
2022-12-08T11:41:37.491Z,3.34
2022-12-08T11:44:54.675Z,3.37
2022-12-08T11:48:04.318Z,3.44
2022-12-08T11:51:32.843Z,3.52
2022-12-08T11:54:45.283Z,3.47
2022-12-08T11:57:49.326Z,3.48
2022-12-08T12:00:53.222Z,3.65
2022-12-08T12:04:11.082Z,3.62
2022-12-08T12:07:38.908Z,3.64
2022-12-08T12:11:01.801Z,3.62
2022-12-08T12:14:24.137Z,3.69
2022-12-08T12:18:17.558Z,3.80
2022-12-08T12:21:50.278Z,3.75
2022-12-08T12:24:54.571Z,3.73
2022-12-08T12:28:02.532Z,3.71
2022-12-08T12:31:13.420Z,3.62
2022-12-08T12:34:36.691Z,3.60
2022-12-08T12:37:49.112Z,3.60
2022-12-08T12:41:02.313Z,3.59
2022-12-08T12:44:14.113Z,3.60
2022-12-08T12:47:57.097Z,3.56
2022-12-08T12:51:31.921Z,3.57
2022-12-08T12:54:46.863Z,3.55
2022-12-08T12:57:58.620Z,3.51
2022-12-08T13:01:13.745Z,3.48
2022-12-08T13:04:20.266Z,3.47
2022-12-08T13:07:28.922Z,3.43
2022-12-08T13:10:44.200Z,3.41
2022-12-08T13:13:58.815Z,3.40
2022-12-08T13:17:12.336Z,3.38
2022-12-08T13:20:22.154Z,3.39
2022-12-08T13:23:36.955Z,3.40
2022-12-08T13:27:06.630Z,3.38
2022-12-08T13:30:46.526Z,3.40
2022-12-08T13:33:50.481Z,3.40
2022-12-08T13:37:11.292Z,3.40
2022-12-08T13:40:24.906Z,3.40
2022-12-08T13:44:14.284Z,3.35
2022-12-08T13:47:33.412Z,3.34
2022-12-08T13:57:50.958Z,3.36
2022-12-08T14:01:29.307Z,3.32
2022-12-08T14:08:36.316Z,3.30
2022-12-08T14:12:04.582Z,3.30
2022-12-08T14:15:14.411Z,3.29
2022-12-08T14:18:29.567Z,3.31
2022-12-08T14:21:36.214Z,3.24
2022-12-08T14:24:46.733Z,3.21
2022-12-08T14:28:06.497Z,3.17
2022-12-08T14:31:18.468Z,3.15
2022-12-08T14:34:30.593Z,3.13
2022-12-08T14:37:50.638Z,3.11
2022-12-08T14:41:05.109Z,3.11
2022-12-08T14:44:32.414Z,3.12
2022-12-08T14:47:37.428Z,3.11
2022-12-08T14:51:12.455Z,3.10
2022-12-08T14:54:18.947Z,3.08
2022-12-08T14:57:24.251Z,3.09
2022-12-08T15:00:28.918Z,3.07
2022-12-08T15:03:34.223Z,3.06
2022-12-08T15:06:41.617Z,3.05
2022-12-08T15:10:16.696Z,3.02
2022-12-08T15:13:19.697Z,3.01
2022-12-08T15:16:27.532Z,2.98
2022-12-08T15:19:34.681Z,2.93
2022-12-08T15:22:39.079Z,2.91
2022-12-08T15:25:44.557Z,2.87
2022-12-08T15:28:50.547Z,2.84
2022-12-08T15:32:07.549Z,2.83
2022-12-08T15:35:24.280Z,2.85
2022-12-08T15:38:36.133Z,2.86
2022-12-08T15:41:50.749Z,2.84
2022-12-08T15:44:54.294Z,2.81
2022-12-08T15:48:05.811Z,2.80
2022-12-08T15:51:21.307Z,2.82
2022-12-08T15:54:29.447Z,2.80
2022-12-08T16:01:03.204Z,2.68
2022-12-08T16:04:47.405Z,2.61
2022-12-08T16:07:41.296Z,2.61
2022-12-08T16:12:04.071Z,2.56
2022-12-08T16:18:29.237Z,2.56
2022-12-08T16:25:18.183Z,2.50
2022-12-08T16:32:05.327Z,2.48
2022-12-08T16:35:12.469Z,2.49
2022-12-08T16:38:21.904Z,2.50
2022-12-08T16:41:53.211Z,2.52
2022-12-08T16:45:07.518Z,2.55
2022-12-08T16:48:14.650Z,2.55
2022-12-08T16:51:27.376Z,2.58
2022-12-08T16:54:43.324Z,2.56
2022-12-08T16:57:51.276Z,2.57
2022-12-08T17:00:57.759Z,2.55
2022-12-08T17:04:31.026Z,2.55
2022-12-08T17:07:36.765Z,2.58
2022-12-08T17:11:05.656Z,2.59
2022-12-08T17:14:21.292Z,2.58
2022-12-08T17:17:29.210Z,2.57
2022-12-08T17:20:36.298Z,2.59
2022-12-08T17:23:42.436Z,2.60
2022-12-08T17:26:52.115Z,2.64
2022-12-08T17:30:04.604Z,2.65
2022-12-08T17:33:10.419Z,2.65
2022-12-08T17:36:17.585Z,2.67
2022-12-08T17:39:27.202Z,2.68
2022-12-08T17:42:35.067Z,2.68
2022-12-08T17:45:48.872Z,2.68
2022-12-08T17:48:54.261Z,2.65
2022-12-08T17:52:02.536Z,2.67
2022-12-08T17:55:15.222Z,2.63
2022-12-08T17:58:32.116Z,2.60
2022-12-08T18:01:41.367Z,2.59
2022-12-08T18:04:49.550Z,2.49
2022-12-08T18:07:52.535Z,2.49
2022-12-08T18:11:07.289Z,2.48
2022-12-08T18:14:21.518Z,2.45
2022-12-08T18:17:26.793Z,2.44
2022-12-08T18:20:32.329Z,2.42
2022-12-08T18:23:42.360Z,2.39
2022-12-08T18:26:56.315Z,2.38
2022-12-08T18:30:08.827Z,2.34
2022-12-08T18:33:14.293Z,2.33
2022-12-08T18:36:24.884Z,2.34
2022-12-08T18:39:34.195Z,2.34
2022-12-08T18:42:39.482Z,2.33
2022-12-08T18:45:48.271Z,2.33
2022-12-08T18:49:02.105Z,2.32
2022-12-08T18:52:14.208Z,2.31
2022-12-08T18:55:21.281Z,2.32
2022-12-08T18:58:37.246Z,2.32
2022-12-08T19:01:41.397Z,2.33
2022-12-08T19:04:50.273Z,2.31
2022-12-08T19:07:55.520Z,2.32
2022-12-08T19:11:05.404Z,2.33
2022-12-08T19:14:11.481Z,2.36
2022-12-08T19:17:15.446Z,2.39
2022-12-08T19:20:32.241Z,2.36
2022-12-08T19:23:37.221Z,2.39
2022-12-08T19:26:57.287Z,2.37
2022-12-08T19:30:08.718Z,2.41
2022-12-08T19:33:12.839Z,2.39
2022-12-08T19:36:19.347Z,2.34
2022-12-08T19:39:46.346Z,2.40
2022-12-08T19:43:10.774Z,2.35
2022-12-08T19:46:24.343Z,2.35
2022-12-08T19:49:28.801Z,2.34
2022-12-08T19:52:48.134Z,2.33
2022-12-08T19:55:55.564Z,2.29
2022-12-08T19:59:09.117Z,2.28
2022-12-08T20:02:14.285Z,2.29
2022-12-08T20:05:24.220Z,2.28
2022-12-08T20:08:36.241Z,2.29
2022-12-08T20:11:41.578Z,2.27
2022-12-08T20:14:46.501Z,2.25
2022-12-08T20:17:51.406Z,2.21
2022-12-08T20:20:54.503Z,2.15
2022-12-08T20:23:59.402Z,2.06
2022-12-08T20:27:04.664Z,1.99
2022-12-08T20:30:16.728Z,1.94
2022-12-08T20:33:21.691Z,1.88
2022-12-08T20:36:30.012Z,1.87
2022-12-08T20:39:40.289Z,1.88
2022-12-08T20:42:47.934Z,1.92
2022-12-08T20:45:58.660Z,1.96
2022-12-08T20:49:04.339Z,1.97
2022-12-08T20:52:08.859Z,2.00
2022-12-08T20:55:13.041Z,2.04
2022-12-08T20:58:16.725Z,2.03
2022-12-08T21:01:23.055Z,2.05
2022-12-08T21:04:29.478Z,2.06
2022-12-08T21:07:44.182Z,2.08
2022-12-08T21:10:55.068Z,2.09
2022-12-08T21:13:59.501Z,2.06
2022-12-08T21:17:08.388Z,2.10
2022-12-08T21:20:12.297Z,2.12
2022-12-08T21:23:16.515Z,2.10
2022-12-08T21:26:27.382Z,2.09
2022-12-08T21:29:33.938Z,2.05
2022-12-08T21:32:39.305Z,2.02
2022-12-08T21:35:42.462Z,1.95
2022-12-08T21:38:46.536Z,1.90
2022-12-08T21:42:12.416Z,1.89
2022-12-08T21:45:17.860Z,1.92
2022-12-08T21:48:21.196Z,1.91
2022-12-08T21:51:24.362Z,1.91
2022-12-08T21:54:28.658Z,1.89
2022-12-08T21:57:36.269Z,1.93
2022-12-08T22:00:39.328Z,1.98
2022-12-08T22:03:44.650Z,2.00
2022-12-08T22:06:49.470Z,2.04
2022-12-08T22:09:54.755Z,2.05
2022-12-08T22:12:59.227Z,1.99
2022-12-08T22:16:06.607Z,1.95
2022-12-08T22:19:09.496Z,1.93
2022-12-08T22:22:16.939Z,1.92
2022-12-08T22:25:20.433Z,1.95
2022-12-08T22:28:26.420Z,1.94
2022-12-08T22:31:29.811Z,1.96
2022-12-08T22:34:33.192Z,1.99
2022-12-08T22:37:36.244Z,1.99
2022-12-08T22:40:41.435Z,2.02
2022-12-08T22:43:45.483Z,2.09
2022-12-08T22:46:49.600Z,2.16
2022-12-08T22:49:55.273Z,2.12
2022-12-08T22:53:09.310Z,2.06
2022-12-08T22:56:14.166Z,2.07
2022-12-08T22:59:17.384Z,2.05
2022-12-08T23:02:20.226Z,2.02
2022-12-08T23:05:23.558Z,2.03
2022-12-08T23:08:26.275Z,1.98
2022-12-08T23:11:30.825Z,2.01
2022-12-08T23:14:33.758Z,1.98
2022-12-08T23:17:36.670Z,1.99
2022-12-08T23:20:40.275Z,1.99
2022-12-08T23:23:43.864Z,1.99
2022-12-08T23:26:46.313Z,2.00
2022-12-08T23:29:49.056Z,2.01
2022-12-08T23:32:56.381Z,2.03
2022-12-08T23:35:59.568Z,2.03
2022-12-08T23:39:02.421Z,2.10
2022-12-08T23:42:07.739Z,2.09
2022-12-08T23:45:11.593Z,2.01
2022-12-08T23:48:15.505Z,2.01
2022-12-08T23:51:20.160Z,1.97
2022-12-08T23:54:24.321Z,1.97
2022-12-08T23:57:26.787Z,1.96
